createdAt,value
2022-11-04T00:01:38.511Z,9.06
2022-11-04T00:12:41.670Z,9.06
2022-11-04T00:23:24.924Z,9.25
2022-11-04T00:34:27.567Z,9.25
2022-11-04T00:45:20.791Z,9.25
2022-11-04T00:56:01.283Z,9.35
2022-11-04T01:07:03.129Z,9.35
2022-11-04T01:18:06.299Z,9.35
2022-11-04T01:29:08.718Z,9.45
2022-11-04T01:40:10.685Z,9.45
2022-11-04T01:51:13.948Z,9.55
2022-11-04T02:02:15.914Z,9.65
2022-11-04T02:13:14.624Z,9.65
2022-11-04T02:24:15.422Z,9.74
2022-11-04T02:35:18.277Z,9.64
2022-11-04T02:46:22.074Z,9.74
2022-11-04T02:57:26.195Z,9.84
2022-11-04T03:08:28.478Z,9.94
2022-11-04T03:19:30.519Z,9.84
2022-11-04T03:30:33.711Z,10.04
2022-11-04T03:41:37.754Z,9.94
2022-11-04T03:52:42.680Z,10.04
2022-11-04T04:03:45.082Z,10.04
2022-11-04T04:14:48.219Z,9.94
2022-11-04T04:25:53.469Z,10.04
2022-11-04T04:37:00.554Z,10.13
2022-11-04T04:47:43.916Z,10.13
2022-11-04T04:58:33.107Z,10.23
2022-11-04T05:09:20.594Z,10.23
2022-11-04T05:20:35.801Z,10.33
2022-11-04T05:31:40.115Z,10.43
2022-11-04T05:42:35.124Z,10.43
2022-11-04T05:53:29.781Z,10.43
2022-11-04T06:04:42.443Z,10.53
2022-11-04T06:15:47.474Z,10.53
2022-11-04T06:26:59.064Z,10.72
2022-11-04T06:38:08.496Z,10.72
2022-11-04T06:49:21.015Z,10.82
2022-11-04T07:00:29.154Z,10.92
2022-11-04T07:11:38.467Z,11.01
2022-11-04T07:22:42.329Z,11.21
2022-11-04T07:33:42.546Z,11.21
2022-11-04T07:44:49.208Z,11.21
2022-11-04T07:55:47.665Z,11.31
2022-11-04T08:06:48.485Z,11.41
2022-11-04T08:17:50.846Z,11.41
2022-11-04T08:28:52.067Z,11.50
2022-11-04T08:39:55.220Z,11.60
2022-11-04T08:50:59.039Z,11.60
2022-11-04T09:01:41.336Z,11.90
2022-11-04T09:12:43.187Z,11.80
2022-11-04T09:23:24.450Z,11.70
2022-11-04T09:34:25.838Z,11.60
2022-11-04T09:45:27.710Z,11.60
2022-11-04T09:56:28.486Z,11.70
2022-11-04T10:07:30.508Z,11.60
2022-11-04T10:18:31.596Z,11.60
2022-11-04T10:29:33.363Z,11.50
2022-11-04T10:40:34.743Z,11.50
2022-11-04T10:51:35.563Z,11.50
2022-11-04T11:02:36.736Z,11.60
2022-11-04T11:13:38.387Z,11.60
2022-11-04T11:24:41.114Z,11.41
2022-11-04T11:35:41.227Z,11.21
2022-11-04T11:46:44.474Z,11.11
2022-11-04T11:57:44.278Z,11.01
2022-11-04T12:19:51.179Z,11.11
2022-11-04T12:30:47.375Z,11.11
2022-11-04T12:42:06.784Z,11.11
2022-11-04T12:52:41.537Z,11.31
2022-11-04T13:03:29.922Z,11.31
2022-11-04T13:14:13.711Z,11.11
2022-11-04T13:24:54.973Z,11.31
2022-11-04T13:35:38.764Z,11.41
2022-11-04T13:46:47.467Z,11.01
2022-11-04T13:57:49.070Z,10.14
2022-11-04T14:08:49.876Z,9.45
2022-11-04T14:19:59.140Z,9.35
2022-11-04T14:31:12.541Z,9.35
2022-11-04T14:42:13.788Z,9.25
2022-11-04T14:53:12.962Z,8.96
2022-11-04T15:04:21.466Z,8.86
2022-11-04T15:15:30.623Z,8.86
2022-11-04T15:26:39.657Z,8.57
2022-11-04T15:37:48.709Z,8.57
2022-11-04T15:48:57.597Z,8.67
2022-11-04T16:00:05.777Z,8.57
2022-11-04T16:11:11.712Z,8.18
2022-11-04T16:22:17.972Z,8.28
2022-11-04T16:33:21.364Z,7.88
2022-11-04T16:44:21.133Z,7.88
2022-11-04T16:55:24.643Z,8.08
2022-11-04T17:06:24.648Z,8.37
2022-11-04T17:17:33.910Z,8.37
